Time;durP1;ratioP1;P1;durP2;ratioP2;P2;SDS_P1;SDS_P2;PMS_P1;PMS_P2;Temp;Humidity;BMP_temperature;BMP_pressure;BME280_temperature;BME280_humidity;BME280_pressure;Samples;Min_cycle;Max_cycle;Signal;HPM_P1;HPM_P2
2023/08/19 00:00:21;;;;;;;;;;;;;;;21.13;100.00;96433.25;5043781;28;20249;-75
2023/08/19 00:02:47;;;;;;;;;;;;;;;21.11;100.00;96424.75;5044303;28;20017;-74
2023/08/19 00:05:13;;;;;;;;;;;;;;;21.09;100.00;96430.38;5044259;28;20011;-73
2023/08/19 00:07:39;;;;;;;;;;;;;;;21.06;100.00;96435.47;5043896;28;20022;-73
2023/08/19 00:10:05;;;;;;;;;;;;;;;21.02;100.00;96424.59;5044064;28;19995;-78
2023/08/19 00:12:31;;;;;;;;;;;;;;;21.00;100.00;96434.75;5045421;28;19962;-73
2023/08/19 00:14:57;;;;;;;;;;;;;;;20.96;100.00;96427.63;5030469;28;20226;-73
2023/08/19 00:17:23;;;;;;;;;;;;;;;20.93;100.00;96417.50;5047929;28;19962;-74
2023/08/19 00:19:50;;;;;;;;;;;;;;;20.90;100.00;96424.19;5047947;28;19954;-73
2023/08/19 00:22:16;;;;;;;;;;;;;;;20.88;100.00;96421.03;5047958;28;19961;-73
2023/08/19 00:24:42;;;;;;;;;;;;;;;20.85;100.00;96425.06;5047972;28;19953;-74
2023/08/19 00:27:08;;;;;;;;;;;;;;;20.82;100.00;96409.63;5048059;28;19951;-74
2023/08/19 00:29:34;;;;;;;;;;;;;;;20.80;100.00;96413.66;5047869;28;20016;-77
2023/08/19 00:32:00;;;;;;;;;;;;;;;20.77;100.00;96409.69;5046842;28;20214;-79
2023/08/19 00:34:26;;;;;;;;;;;;;;;20.75;100.00;96411.06;5047432;28;19954;-79
2023/08/19 00:36:52;;;;;;;;;;;;;;;20.73;100.00;96416.66;5047717;28;19959;-79
2023/08/19 00:39:17;;;;;;;;;;;;;;;20.72;100.00;96419.59;5047791;28;19961;-79
2023/08/19 00:41:44;;;;;;;;;;;;;;;20.70;100.00;96413.75;5047355;28;19957;-80
2023/08/19 00:44:10;;;;;;;;;;;;;;;20.67;100.00;96415.91;5047401;28;20121;-79
2023/08/19 00:46:36;;;;;;;;;;;;;;;20.65;100.00;96414.63;5047540;28;20009;-80
2023/08/19 00:49:02;;;;;;;;;;;;;;;20.63;100.00;96420.22;5047974;28;20287;-70
2023/08/19 00:51:28;;;;;;;;;;;;;;;20.58;100.00;96425.63;5046979;28;19998;-70
2023/08/19 00:53:54;;;;;;;;;;;;;;;20.55;100.00;96431.47;5047410;28;19970;-70
2023/08/19 00:56:20;;;;;;;;;;;;;;;20.52;100.00;96426.72;5047448;28;19950;-70
2023/08/19 00:58:45;;;;;;;;;;;;;;;20.48;100.00;96434.47;5047310;28;19954;-71
2023/08/19 01:01:11;;;;;;;;;;;;;;;20.46;100.00;96427.84;5046834;28;19964;-70
2023/08/19 01:03:37;;;;;;;;;;;;;;;20.43;100.00;96423.88;5046835;28;19961;-80
2023/08/19 01:06:14;;;;;;;;;;;;;;;20.42;100.00;96427.59;5047188;28;19958;-71
2023/08/19 01:08:43;;;;;;;;;;;;;;;20.40;100.00;96432.41;5046869;28;19960;-78
2023/08/19 01:11:25;;;;;;;;;;;;;;;20.36;100.00;96434.03;5046551;28;19947;-78
2023/08/19 01:14:17;;;;;;;;;;;;;;;20.35;100.00;96429.00;5046900;28;20149;-78
2023/08/19 01:16:45;;;;;;;;;;;;;;;20.33;100.00;96426.63;5016272;28;19959;-78
2023/08/19 01:19:18;;;;;;;;;;;;;;;20.30;100.00;96427.19;5046946;28;19938;-78
2023/08/19 01:21:45;;;;;;;;;;;;;;;20.28;100.00;96418.69;5046507;28;19956;-79
2023/08/19 01:24:13;;;;;;;;;;;;;;;20.26;100.00;96418.97;5046091;28;19971;-78
2023/08/19 01:26:38;;;;;;;;;;;;;;;20.24;100.00;96421.13;5046412;28;19966;-71
2023/08/19 01:29:04;;;;;;;;;;;;;;;20.21;100.00;96413.69;5046489;28;20024;-70
2023/08/19 01:31:30;;;;;;;;;;;;;;;20.20;100.00;96421.94;5046529;28;19958;-70
2023/08/19 01:33:56;;;;;;;;;;;;;;;20.17;100.00;96417.19;5046483;28;19957;-70
2023/08/19 01:36:26;;;;;;;;;;;;;;;20.16;100.00;96412.91;5046546;28;19960;-70
2023/08/19 01:39:00;;;;;;;;;;;;;;;20.13;100.00;96416.94;5028655;28;20251;-70
2023/08/19 01:41:29;;;;;;;;;;;;;;;20.08;100.00;96409.81;5046097;28;19959;-70
2023/08/19 01:43:56;;;;;;;;;;;;;;;20.07;100.00;96418.06;5045994;28;19969;-78
2023/08/19 01:46:22;;;;;;;;;;;;;;;20.04;100.00;96419.41;5046454;28;19964;-78
2023/08/19 01:48:48;;;;;;;;;;;;;;;20.03;100.00;96420.50;5046655;28;19950;-80
2023/08/19 01:51:14;;;;;;;;;;;;;;;20.00;100.00;96414.94;5046053;28;19956;-79
2023/08/19 01:53:40;;;;;;;;;;;;;;;19.99;100.00;96421.31;5046056;28;19962;-79
2023/08/19 01:56:05;;;;;;;;;;;;;;;19.96;100.00;96420.00;5046356;28;19953;-79
2023/08/19 01:58:31;;;;;;;;;;;;;;;19.94;100.00;96411.50;5046048;28;19950;-70
2023/08/19 02:00:57;;;;;;;;;;;;;;;19.92;100.00;96411.00;5045998;28;20020;-78
2023/08/19 02:03:23;;;;;;;;;;;;;;;19.92;100.00;96416.31;5046180;28;19950;-75
2023/08/19 02:05:49;;;;;;;;;;;;;;;19.90;100.00;96413.13;5045921;28;19965;-74
2023/08/19 02:08:15;;;;;;;;;;;;;;;19.90;100.00;96421.13;5046071;28;19960;-74
2023/08/19 02:10:42;;;;;;;;;;;;;;;19.87;100.00;96421.69;5046074;28;20230;-74
2023/08/19 02:13:08;;;;;;;;;;;;;;;19.84;100.00;96422.22;5045965;28;19965;-74
2023/08/19 02:15:34;;;;;;;;;;;;;;;19.82;100.00;96427.84;5045523;28;19962;-73
2023/08/19 02:18:00;;;;;;;;;;;;;;;19.80;100.00;96427.34;5045982;28;19958;-78
2023/08/19 02:20:26;;;;;;;;;;;;;;;19.78;100.00;96421.50;5045711;28;19958;-70
2023/08/19 02:22:54;;;;;;;;;;;;;;;19.76;100.00;96428.13;5045956;28;19961;-70
2023/08/19 02:25:20;;;;;;;;;;;;;;;19.73;100.00;96423.38;5045390;28;19983;-70
2023/08/19 02:27:45;;;;;;;;;;;;;;;19.71;100.00;96425.53;5028061;28;20258;-70
2023/08/19 02:30:12;;;;;;;;;;;;;;;19.68;100.00;96416.22;5045187;28;19951;-70
2023/08/19 02:32:39;;;;;;;;;;;;;;;19.65;100.00;96419.41;5045590;28;19957;-71
2023/08/19 02:35:05;;;;;;;;;;;;;;;19.61;100.00;96424.50;5045267;28;19961;-74
2023/08/19 02:37:31;;;;;;;;;;;;;;;19.59;100.00;96418.66;5045524;28;19962;-70
2023/08/19 02:39:57;;;;;;;;;;;;;;;19.57;100.00;96417.34;5044906;28;19956;-79
2023/08/19 02:42:22;;;;;;;;;;;;;;;19.55;100.00;96414.16;5045397;28;19959;-78
2023/08/19 02:44:48;;;;;;;;;;;;;;;19.51;100.00;96421.09;5045102;28;19940;-79
2023/08/19 02:47:14;;;;;;;;;;;;;;;19.47;100.00;96416.34;5044926;28;19966;-79
2023/08/19 02:49:40;;;;;;;;;;;;;;;19.45;100.00;96417.69;5044899;28;19956;-78
2023/08/19 02:52:06;;;;;;;;;;;;;;;19.43;100.00;96414.50;5044861;28;19957;-79
2023/08/19 02:54:32;;;;;;;;;;;;;;;19.39;100.00;96419.56;5027252;28;20270;-70
2023/08/19 02:56:57;;;;;;;;;;;;;;;19.36;100.00;96425.44;5044884;28;19964;-78
2023/08/19 02:59:23;;;;;;;;;;;;;;;19.31;100.00;96422.81;5044909;28;19951;-79
2023/08/19 03:01:49;;;;;;;;;;;;;;;19.31;100.00;96428.13;5045138;28;19983;-79
2023/08/19 03:04:15;;;;;;;;;;;;;;;19.27;100.00;96424.41;5044959;28;20127;-78
2023/08/19 03:06:41;;;;;;;;;;;;;;;19.25;100.00;96432.66;5044858;28;19962;-78
2023/08/19 03:09:07;;;;;;;;;;;;;;;19.22;100.00;96437.75;5044977;28;19963;-79
2023/08/19 03:11:35;;;;;;;;;;;;;;;19.19;100.00;96436.44;5044917;28;20153;-78
2023/08/19 03:14:01;;;;;;;;;;;;;;;19.16;100.00;96429.00;5044440;28;20229;-74
2023/08/19 03:16:26;;;;;;;;;;;;;;;19.15;100.00;96432.75;5044828;28;19953;-75
2023/08/19 03:18:52;;;;;;;;;;;;;;;19.11;100.00;96431.69;5044390;28;19988;-74
2023/08/19 03:21:18;;;;;;;;;;;;;;;19.08;100.00;96432.22;5044645;28;19993;-74
2023/08/19 03:23:44;;;;;;;;;;;;;;;19.05;100.00;96424.81;5044736;28;20232;-75
2023/08/19 03:26:10;;;;;;;;;;;;;;;19.04;100.00;96428.50;5044365;28;20152;-75
2023/08/19 03:28:36;;;;;;;;;;;;;;;19.00;100.00;96425.63;5044115;28;20166;-75
2023/08/19 03:31:09;;;;;;;;;;;;;;;18.98;100.00;96419.78;5044459;28;19953;-74
2023/08/19 03:33:34;;;;;;;;;;;;;;;18.97;100.00;96430.69;5044493;28;20200;-78
2023/08/19 03:36:00;;;;;;;;;;;;;;;18.96;100.00;96424.56;5044506;28;19967;-70
2023/08/19 03:38:26;;;;;;;;;;;;;;;18.96;100.00;96432.53;5044520;28;20024;-70
2023/08/19 03:40:52;;;;;;;;;;;;;;;18.93;100.00;96429.63;5044443;28;19961;-70
2023/08/19 03:43:18;;;;;;;;;;;;;;;18.91;100.00;96429.91;5044048;28;19944;-70
2023/08/19 03:45:44;;;;;;;;;;;;;;;18.90;100.00;96436.28;5044582;28;20007;-70
2023/08/19 03:48:11;;;;;;;;;;;;;;;18.87;100.00;96431.50;5043752;28;20018;-70
2023/08/19 03:50:37;;;;;;;;;;;;;;;18.86;100.00;96440.56;5044273;28;19955;-75
2023/08/19 03:53:03;;;;;;;;;;;;;;;18.85;100.00;96430.97;5044152;28;20252;-74
2023/08/19 03:55:30;;;;;;;;;;;;;;;18.84;100.00;96440.81;5044405;28;20010;-74
2023/08/19 03:57:55;;;;;;;;;;;;;;;18.83;100.00;96441.88;5044275;28;19956;-74
2023/08/19 04:00:21;;;;;;;;;;;;;;;18.84;100.00;96443.47;5044464;28;19963;-73
2023/08/19 04:02:47;;;;;;;;;;;;;;;18.83;100.00;96444.53;5044246;28;19956;-74
2023/08/19 04:05:13;;;;;;;;;;;;;;;18.82;100.00;96445.59;5044238;28;20023;-74
2023/08/19 04:07:39;;;;;;;;;;;;;;;18.81;100.00;96440.56;5044285;28;20008;-75
2023/08/19 04:10:05;;;;;;;;;;;;;;;18.81;100.00;96440.56;5044340;28;19959;-80
2023/08/19 04:12:31;;;;;;;;;;;;;;;18.82;100.00;96442.16;5044254;28;19943;-74
2023/08/19 04:14:57;;;;;;;;;;;;;;;18.81;100.00;96435.22;5044433;28;20190;-74
2023/08/19 04:17:23;;;;;;;;;;;;;;;18.78;100.00;96436.56;5044079;28;19957;-74
2023/08/19 04:19:49;;;;;;;;;;;;;;;18.78;100.00;96441.06;5043824;28;20256;-74
2023/08/19 04:22:15;;;;;;;;;;;;;;;18.78;100.00;96443.72;5044361;28;20290;-74
2023/08/19 04:24:41;;;;;;;;;;;;;;;18.78;100.00;96443.72;5043769;28;19964;-75
2023/08/19 04:27:07;;;;;;;;;;;;;;;18.77;100.00;96444.78;5043902;28;19961;-76
2023/08/19 04:29:33;;;;;;;;;;;;;;;18.77;100.00;96442.13;5044189;28;19960;-74
2023/08/19 04:32:02;;;;;;;;;;;;;;;18.76;100.00;96446.66;5043943;28;19964;-74
2023/08/19 04:34:29;;;;;;;;;;;;;;;18.76;100.00;96445.88;5026210;28;20243;-74
2023/08/19 04:36:55;;;;;;;;;;;;;;;18.74;100.00;96443.47;5044015;28;19959;-74
2023/08/19 04:39:21;;;;;;;;;;;;;;;18.76;100.00;96448.53;5043368;28;19956;-74
2023/08/19 04:41:48;;;;;;;;;;;;;;;18.76;100.00;96451.19;5043997;28;19939;-74
2023/08/19 04:44:14;;;;;;;;;;;;;;;18.76;100.00;96456.50;5044216;28;19965;-73
2023/08/19 04:46:40;;;;;;;;;;;;;;;18.76;100.00;96451.97;5043624;28;19985;-75
2023/08/19 04:49:07;;;;;;;;;;;;;;;18.76;100.00;96453.84;5044086;28;20157;-74
2023/08/19 04:51:33;;;;;;;;;;;;;;;18.77;100.00;96458.06;5026203;28;20268;-74
2023/08/19 04:53:59;;;;;;;;;;;;;;;18.76;100.00;96454.63;5043932;28;20236;-74
2023/08/19 04:56:25;;;;;;;;;;;;;;;18.74;100.00;96454.09;5042402;28;19998;-73
2023/08/19 04:58:51;;;;;;;;;;;;;;;18.77;100.00;96452.75;5043948;28;19995;-73
2023/08/19 05:01:17;;;;;;;;;;;;;;;18.80;100.00;96449.59;5047252;28;19950;-73
2023/08/19 05:03:43;;;;;;;;;;;;;;;18.85;100.00;96450.38;5047242;28;19958;-73
2023/08/19 05:06:09;;;;;;;;;;;;;;;18.92;100.00;96460.72;5047234;28;20323;-79
2023/08/19 05:08:34;;;;;;;;;;;;;;;18.97;100.00;96455.38;5046672;28;20020;-78
2023/08/19 05:11:00;;;;;;;;;;;;;;;19.03;100.00;96459.63;5046626;28;19943;-78
2023/08/19 05:13:26;;;;;;;;;;;;;;;19.09;100.00;96462.25;5047158;28;19956;-79
2023/08/19 05:15:52;;;;;;;;;;;;;;;19.14;100.00;96465.69;5047210;28;20239;-78
2023/08/19 05:18:18;;;;;;;;;;;;;;;19.21;100.00;96463.56;5029064;28;19956;-78
2023/08/19 05:20:43;;;;;;;;;;;;;;;19.29;100.00;96464.81;5046637;28;20049;-74
2023/08/19 05:23:09;;;;;;;;;;;;;;;19.36;100.00;96469.84;5046961;28;19954;-70
2023/08/19 05:25:35;;;;;;;;;;;;;;;19.44;100.00;96462.09;5046847;28;19957;-78
2023/08/19 05:28:01;;;;;;;;;;;;;;;19.58;100.00;96472.91;5046285;28;20286;-78
2023/08/19 05:30:27;;;;;;;;;;;;;;;19.74;100.00;96464.88;5046638;28;20184;-79
2023/08/19 05:32:53;;;;;;;;;;;;;;;19.93;100.00;96468.50;5046853;28;20213;-78
2023/08/19 05:35:18;;;;;;;;;;;;;;;20.16;100.00;96460.84;5046678;28;19958;-78
2023/08/19 05:37:44;;;;;;;;;;;;;;;20.42;100.00;96464.09;5046839;28;19964;-78
2023/08/19 05:40:10;;;;;;;;;;;;;;;20.71;100.00;96464.13;5046606;28;19957;-78
2023/08/19 05:42:36;;;;;;;;;;;;;;;21.03;100.00;96454.72;5046682;28;19937;-78
2023/08/19 05:45:02;;;;;;;;;;;;;;;21.33;100.00;96456.19;5046524;28;19961;-78
2023/08/19 05:47:29;;;;;;;;;;;;;;;21.63;100.00;96449.72;5046299;28;19958;-78
2023/08/19 05:49:54;;;;;;;;;;;;;;;21.94;99.59;96451.91;5046151;28;20141;-78
2023/08/19 05:52:20;;;;;;;;;;;;;;;22.21;97.70;96437.06;5046141;28;19963;-78
2023/08/19 05:54:46;;;;;;;;;;;;;;;22.47;96.82;96430.25;5046548;28;20143;-79
2023/08/19 05:57:12;;;;;;;;;;;;;;;22.69;94.06;96413.53;5045849;28;19964;-78
2023/08/19 05:59:38;;;;;;;;;;;;;;;22.87;93.55;96417.19;5046980;28;19957;-73
2023/08/19 06:02:04;;;;;;;;;;;;;;;23.08;93.09;96424.84;5046236;28;19960;-70
2023/08/19 06:04:30;;;;;;;;;;;;;;;23.26;92.14;96423.13;5046185;28;19951;-70
2023/08/19 06:06:56;;;;;;;;;;;;;;;23.47;91.60;96426.16;5046109;28;19962;-70
2023/08/19 06:09:21;;;;;;;;;;;;;;;23.65;90.30;96427.91;5045936;28;19959;-70
2023/08/19 06:11:52;;;;;;;;;;;;;;;23.83;89.78;96425.38;5045251;28;19947;-71
2023/08/19 06:14:18;;;;;;;;;;;;;;;23.98;88.57;96424.22;5046261;28;19953;-70
2023/08/19 06:16:44;;;;;;;;;;;;;;;24.12;87.85;96422.28;5045798;28;20146;-74
2023/08/19 06:19:10;;;;;;;;;;;;;;;24.23;87.42;96417.44;5045632;28;19953;-70
2023/08/19 06:21:36;;;;;;;;;;;;;;;24.33;87.04;96414.53;5045584;28;19957;-74
2023/08/19 06:24:02;;;;;;;;;;;;;;;24.39;86.63;96415.19;5045970;28;20253;-74
2023/08/19 06:26:28;;;;;;;;;;;;;;;24.37;85.35;96412.03;5045509;28;19961;-74
2023/08/19 06:28:53;;;;;;;;;;;;;;;24.43;85.54;96418.84;5045559;28;19961;-74
2023/08/19 06:31:20;;;;;;;;;;;;;;;24.48;83.67;96399.91;5045596;28;19955;-74
2023/08/19 06:33:46;;;;;;;;;;;;;;;24.52;83.66;96412.44;5045761;28;19955;-74
2023/08/19 06:36:14;;;;;;;;;;;;;;;24.54;85.06;96425.53;5045704;28;19958;-74
2023/08/19 06:38:41;;;;;;;;;;;;;;;24.62;84.41;96422.09;5044831;28;19960;-74
2023/08/19 06:41:09;;;;;;;;;;;;;;;24.68;83.11;96415.50;5045296;28;19945;-74
2023/08/19 06:43:36;;;;;;;;;;;;;;;24.78;84.47;96422.50;5045288;28;19962;-74
2023/08/19 06:46:04;;;;;;;;;;;;;;;24.89;84.10;96423.78;5044926;28;19957;-74
2023/08/19 06:48:31;;;;;;;;;;;;;;;24.98;81.73;96409.63;5045373;28;19955;-74
2023/08/19 06:50:57;;;;;;;;;;;;;;;24.92;80.89;96414.31;5045002;28;19957;-74
2023/08/19 06:53:23;;;;;;;;;;;;;;;24.91;82.85;96428.84;5045067;28;19954;-71
2023/08/19 06:55:58;;;;;;;;;;;;;;;24.84;80.53;96415.06;5045046;28;20248;-75
2023/08/19 06:58:28;;;;;;;;;;;;;;;24.80;82.84;96435.56;5027392;28;19965;-79
2023/08/19 07:00:59;;;;;;;;;;;;;;;24.83;82.84;96446.47;5045116;28;19951;-79
2023/08/19 07:03:29;;;;;;;;;;;;;;;24.90;80.79;96435.28;5045095;28;19962;-79
2023/08/19 07:05:56;;;;;;;;;;;;;;;24.99;81.93;96440.69;5044895;28;19956;-79
2023/08/19 07:08:22;;;;;;;;;;;;;;;25.12;82.30;96453.22;5045038;28;19957;-79
2023/08/19 07:10:48;;;;;;;;;;;;;;;25.19;78.38;96421.34;5044971;28;19959;-79
2023/08/19 07:13:14;;;;;;;;;;;;;;;25.22;80.14;96436.84;5044855;28;19964;-79
2023/08/19 07:15:42;;;;;;;;;;;;;;;25.18;77.76;96425.13;5044600;28;20254;-71
2023/08/19 07:18:09;;;;;;;;;;;;;;;25.25;80.27;96446.97;5044640;28;19979;-71
2023/08/19 07:20:35;;;;;;;;;;;;;;;25.29;80.60;96453.28;5044647;28;19974;-70
2023/08/19 07:23:02;;;;;;;;;;;;;;;25.39;79.92;96459.44;5044068;28;19962;-71
2023/08/19 07:25:28;;;;;;;;;;;;;;;25.42;77.15;96435.47;5044679;28;19959;-70
2023/08/19 07:27:55;;;;;;;;;;;;;;;25.48;79.17;96449.53;5044106;28;19974;-71
2023/08/19 07:30:21;;;;;;;;;;;;;;;25.55;80.70;96462.47;5044688;28;19950;-74
2023/08/19 07:32:47;;;;;;;;;;;;;;;25.56;78.82;96443.38;5044183;28;19937;-80
2023/08/19 07:35:13;;;;;;;;;;;;;;;25.58;78.50;96449.22;5044212;28;20081;-73
2023/08/19 07:37:38;;;;;;;;;;;;;;;25.58;77.97;96445.75;5044173;28;19959;-73
2023/08/19 07:40:06;;;;;;;;;;;;;;;25.61;79.37;96458.53;5044251;28;20139;-74
2023/08/19 07:42:31;;;;;;;;;;;;;;;25.68;78.90;96453.47;5044242;28;19951;-74
2023/08/19 07:44:57;;;;;;;;;;;;;;;25.63;78.56;96449.06;5044263;28;19957;-74
2023/08/19 07:47:23;;;;;;;;;;;;;;;25.72;80.83;96467.88;5026784;28;20252;-74
2023/08/19 07:49:49;;;;;;;;;;;;;;;25.88;80.66;96463.59;5044318;28;19955;-75
2023/08/19 07:52:15;;;;;;;;;;;;;;;25.98;78.33;96453.69;5044550;28;19962;-70
2023/08/19 07:54:41;;;;;;;;;;;;;;;26.08;79.71;96462.22;5044430;28;20017;-71
2023/08/19 07:57:06;;;;;;;;;;;;;;;26.24;77.72;96446.38;5044603;28;19961;-70
2023/08/19 07:59:34;;;;;;;;;;;;;;;26.34;77.25;96450.63;5044470;28;20017;-71
2023/08/19 08:02:00;;;;;;;;;;;;;;;26.49;77.39;96449.34;5044305;28;19951;-71
2023/08/19 08:04:26;;;;;;;;;;;;;;;26.56;76.87;96446.16;5043958;28;20015;-71
2023/08/19 08:06:51;;;;;;;;;;;;;;;26.57;76.20;96434.31;5044011;28;19961;-75
2023/08/19 08:09:18;;;;;;;;;;;;;;;26.65;72.93;96434.28;5044013;28;19964;-71
2023/08/19 08:11:45;;;;;;;;;;;;;;;26.74;75.71;96450.38;5044087;28;19950;-80
2023/08/19 08:14:11;;;;;;;;;;;;;;;26.81;74.42;96444.50;5043965;28;19954;-80
2023/08/19 08:16:37;;;;;;;;;;;;;;;26.86;76.40;96458.56;5044007;28;19992;-79
2023/08/19 08:19:03;;;;;;;;;;;;;;;26.87;72.86;96433.22;5043985;28;19958;-79
2023/08/19 08:21:28;;;;;;;;;;;;;;;26.89;72.17;96438.31;5044081;28;20021;-79
2023/08/19 08:23:54;;;;;;;;;;;;;;;26.85;73.16;96440.06;5044090;28;19957;-80
2023/08/19 08:26:20;;;;;;;;;;;;;;;26.81;74.12;96445.28;5044227;28;19952;-73
2023/08/19 08:28:46;;;;;;;;;;;;;;;26.88;77.03;96461.72;5044172;28;19963;-75
2023/08/19 08:31:12;;;;;;;;;;;;;;;26.99;77.12;96466.75;5044851;28;20240;-75
2023/08/19 08:33:38;;;;;;;;;;;;;;;27.06;75.02;96448.19;5045692;28;19941;-75
2023/08/19 08:36:04;;;;;;;;;;;;;;;27.13;74.20;96448.47;5047426;28;19995;-75
2023/08/19 08:38:30;;;;;;;;;;;;;;;27.11;72.30;96448.03;5030288;28;20007;-75
2023/08/19 08:40:57;;;;;;;;;;;;;;;27.15;73.78;96462.38;5047450;28;19958;-75
2023/08/19 08:43:24;;;;;;;;;;;;;;;27.19;72.15;96454.44;5047786;28;19952;-75
2023/08/19 08:45:50;;;;;;;;;;;;;;;27.30;73.78;96466.47;5047714;28;19958;-75
2023/08/19 08:48:17;;;;;;;;;;;;;;;27.40;77.89;96486.84;5047434;28;19967;-79
2023/08/19 08:50:43;;;;;;;;;;;;;;;27.51;68.57;96453.81;5047414;28;19961;-80
2023/08/19 08:53:11;;;;;;;;;;;;;;;27.56;71.96;96474.38;5047717;28;19958;-79
2023/08/19 08:55:38;;;;;;;;;;;;;;;27.61;74.63;96492.25;5047518;28;19963;-79
2023/08/19 08:58:03;;;;;;;;;;;;;;;27.69;71.99;96491.41;5046941;28;20181;-79
2023/08/19 09:00:30;;;;;;;;;;;;;;;27.78;74.03;96492.13;5047422;28;19956;-79
2023/08/19 09:02:56;;;;;;;;;;;;;;;27.82;70.33;96471.50;5046882;28;19941;-71
2023/08/19 09:05:24;;;;;;;;;;;;;;;27.84;70.26;96479.25;5047384;28;20265;-78
2023/08/19 09:07:51;;;;;;;;;;;;;;;27.87;71.44;96481.34;5046826;28;20146;-79
2023/08/19 09:10:18;;;;;;;;;;;;;;;27.93;72.12;96490.81;5047444;28;19961;-78
2023/08/19 09:12:55;;;;;;;;;;;;;;;28.02;71.47;96477.25;5046897;28;19953;-80
2023/08/19 09:15:22;;;;;;;;;;;;;;;28.07;68.91;96477.81;5047797;28;19966;-79
2023/08/19 09:17:49;;;;;;;;;;;;;;;28.11;70.03;96484.13;5046527;28;19950;-79
2023/08/19 09:20:17;;;;;;;;;;;;;;;28.17;68.98;96478.56;5029321;28;19957;-71
2023/08/19 09:22:43;;;;;;;;;;;;;;;28.23;71.21;96494.19;5047057;28;19956;-75
2023/08/19 09:25:15;;;;;;;;;;;;;;;28.32;71.43;96494.09;5047009;28;20249;-74
2023/08/19 09:27:41;;;;;;;;;;;;;;;28.39;68.44;96485.47;5047132;28;19954;-74
2023/08/19 09:30:07;;;;;;;;;;;;;;;28.51;70.15;96490.94;5047128;28;19984;-74
2023/08/19 09:32:35;;;;;;;;;;;;;;;28.61;70.16;96503.22;5046888;28;19962;-75
2023/08/19 09:35:14;;;;;;;;;;;;;;;28.69;69.85;96497.72;5046454;28;19964;-74
2023/08/19 09:37:42;;;;;;;;;;;;;;;28.75;67.12;96490.22;5045390;28;20891;-74
2023/08/19 09:40:11;;;;;;;;;;;;;;;28.82;68.42;96495.84;5046581;28;19961;-78
2023/08/19 09:42:37;;;;;;;;;;;;;;;28.90;68.17;96489.56;5046552;28;19958;-79
2023/08/19 09:45:04;;;;;;;;;;;;;;;28.99;66.76;96491.38;5045766;28;19954;-79
2023/08/19 09:47:31;;;;;;;;;;;;;;;29.03;66.92;96487.66;5046555;28;19966;-79
2023/08/19 09:49:57;;;;;;;;;;;;;;;29.14;66.29;96475.28;5046528;28;19953;-79
2023/08/19 09:52:23;;;;;;;;;;;;;;;29.23;66.83;96486.00;5046311;28;19941;-79
2023/08/19 09:54:52;;;;;;;;;;;;;;;29.32;68.21;96488.59;5046223;28;19953;-79
2023/08/19 09:57:29;;;;;;;;;;;;;;;29.39;64.29;96480.69;5045949;28;19964;-75
2023/08/19 09:59:55;;;;;;;;;;;;;;;29.50;66.45;96481.03;5046336;28;19951;-79
2023/08/19 10:02:21;;;;;;;;;;;;;;;29.59;63.76;96479.00;5046087;28;19960;-75
2023/08/19 10:04:48;;;;;;;;;;;;;;;29.69;63.72;96481.22;5046013;28;19967;-75
2023/08/19 10:07:16;;;;;;;;;;;;;;;29.84;64.22;96484.34;5046151;28;19967;-75
2023/08/19 10:09:42;;;;;;;;;;;;;;;29.95;65.43;96480.06;5046195;28;19958;-75
2023/08/19 10:12:15;;;;;;;;;;;;;;;30.05;64.45;96484.19;5046080;28;20180;-75
2023/08/19 10:14:42;;;;;;;;;;;;;;;30.18;64.61;96493.06;5046086;28;20142;-75
2023/08/19 10:17:09;;;;;;;;;;;;;;;30.32;63.09;96478.03;5045492;28;19942;-74
2023/08/19 10:19:48;;;;;;;;;;;;;;;30.46;62.08;96479.53;5046246;28;19957;-76
2023/08/19 10:22:14;;;;;;;;;;;;;;;30.59;63.76;96502.69;5027921;28;19954;-75
2023/08/19 10:24:41;;;;;;;;;;;;;;;30.67;59.70;96490.91;5045592;28;19960;-76
2023/08/19 10:27:15;;;;;;;;;;;;;;;30.68;58.54;96488.97;5045453;28;19964;-76
2023/08/19 10:29:42;;;;;;;;;;;;;;;30.80;58.96;96504.38;5045755;28;19967;-76
2023/08/19 10:32:27;;;;;;;;;;;;;;;30.95;61.00;96498.19;5045629;28;19950;-76
2023/08/19 10:35:00;;;;;;;;;;;;;;;31.01;61.65;96496.03;5045651;28;19957;-75
2023/08/19 10:37:29;;;;;;;;;;;;;;;31.07;59.71;96489.22;5045048;28;19969;-79
2023/08/19 10:40:05;;;;;;;;;;;;;;;31.18;55.74;96476.69;5045636;28;19966;-79
2023/08/19 10:42:31;;;;;;;;;;;;;;;31.33;59.82;96492.16;5045903;28;19953;-79
2023/08/19 10:44:57;;;;;;;;;;;;;;;31.50;58.33;96495.66;5045211;28;19958;-79
2023/08/19 10:47:22;;;;;;;;;;;;;;;31.69;56.94;96494.91;5027261;28;19970;-78
2023/08/19 10:49:49;;;;;;;;;;;;;;;31.87;58.22;96495.28;5045369;28;19959;-79
2023/08/19 10:52:21;;;;;;;;;;;;;;;32.10;56.35;96482.63;5045290;28;20231;-76
2023/08/19 10:54:47;;;;;;;;;;;;;;;32.29;56.22;96489.19;5045512;28;19957;-76
2023/08/19 10:57:22;;;;;;;;;;;;;;;32.39;53.85;96493.25;5045217;28;20281;-76
2023/08/19 10:59:50;;;;;;;;;;;;;;;32.51;51.04;96488.44;5044649;28;19962;-76
2023/08/19 11:02:16;;;;;;;;;;;;;;;32.67;51.96;96495.72;5044739;28;19983;-76
2023/08/19 11:04:43;;;;;;;;;;;;;;;32.76;50.14;96501.72;5045217;28;19963;-75
2023/08/19 11:07:09;;;;;;;;;;;;;;;32.88;49.92;96498.78;5044828;28;19990;-76
2023/08/19 11:09:35;;;;;;;;;;;;;;;33.01;50.12;96499.41;5027001;28;19961;-75
2023/08/19 11:12:02;;;;;;;;;;;;;;;33.15;50.67;96501.59;5044740;28;20002;-76
2023/08/19 11:14:29;;;;;;;;;;;;;;;33.33;51.05;96504.59;5044756;28;19957;-79
2023/08/19 11:16:56;;;;;;;;;;;;;;;33.54;48.96;96501.41;5044704;28;19958;-79
2023/08/19 11:19:22;;;;;;;;;;;;;;;33.72;48.80;96494.31;5044523;28;19976;-79
2023/08/19 11:21:49;;;;;;;;;;;;;;;33.86;49.54;96493.72;5044900;28;19963;-79
2023/08/19 11:24:15;;;;;;;;;;;;;;;33.99;46.05;96486.09;5044871;28;19949;-79
2023/08/19 11:26:41;;;;;;;;;;;;;;;34.04;47.71;96498.59;5044795;28;19997;-79
2023/08/19 11:29:08;;;;;;;;;;;;;;;33.99;46.67;96502.41;5044172;28;20147;-75
2023/08/19 11:31:34;;;;;;;;;;;;;;;33.91;46.77;96501.53;5044581;28;19962;-74
2023/08/19 11:34:04;;;;;;;;;;;;;;;33.94;47.52;96498.09;5044686;28;19955;-72
2023/08/19 11:36:30;;;;;;;;;;;;;;;33.93;42.80;96493.78;5044467;28;19957;-71
2023/08/19 11:38:56;;;;;;;;;;;;;;;33.92;44.74;96496.91;5044269;28;19988;-72
2023/08/19 11:41:23;;;;;;;;;;;;;;;33.79;44.96;96501.78;5043502;28;20198;-71
2023/08/19 11:43:50;;;;;;;;;;;;;;;33.65;46.94;96501.59;5044317;28;19951;-72
2023/08/19 11:46:16;;;;;;;;;;;;;;;33.68;47.67;96507.09;5044578;28;19968;-71
2023/08/19 11:48:42;;;;;;;;;;;;;;;33.77;47.61;96509.53;5044570;28;20274;-75
2023/08/19 11:51:09;;;;;;;;;;;;;;;33.80;46.45;96506.06;5044433;28;20229;-75
2023/08/19 11:53:36;;;;;;;;;;;;;;;33.87;46.41;96502.66;5044574;28;19958;-75
2023/08/19 11:56:02;;;;;;;;;;;;;;;33.87;46.53;96514.34;5044400;28;19954;-76
2023/08/19 11:58:38;;;;;;;;;;;;;;;33.82;46.02;96508.44;5044490;28;19938;-75
2023/08/19 12:01:04;;;;;;;;;;;;;;;33.90;45.29;96516.31;5044028;28;19955;-75
2023/08/19 12:03:30;;;;;;;;;;;;;;;33.96;45.99;96520.28;5044095;28;19957;-75
2023/08/19 12:05:57;;;;;;;;;;;;;;;34.15;46.29;96522.09;5044512;28;19958;-79
2023/08/19 12:08:26;;;;;;;;;;;;;;;34.34;45.54;96518.44;5045327;28;19965;-75
2023/08/19 12:10:52;;;;;;;;;;;;;;;34.34;42.13;96517.66;5048154;28;19987;-76
2023/08/19 12:13:21;;;;;;;;;;;;;;;34.43;42.90;96529.03;5048206;28;19950;-75
2023/08/19 12:15:47;;;;;;;;;;;;;;;34.50;44.19;96531.84;5048380;28;19953;-76
2023/08/19 12:18:14;;;;;;;;;;;;;;;34.61;44.40;96529.22;5047768;28;19952;-75
2023/08/19 12:20:40;;;;;;;;;;;;;;;34.67;43.73;96535.13;5048247;28;19962;-75
2023/08/19 12:23:06;;;;;;;;;;;;;;;34.58;41.72;96529.97;5047694;28;19946;-76
2023/08/19 12:25:32;;;;;;;;;;;;;;;34.48;42.04;96533.34;5048593;28;20222;-77
2023/08/19 12:27:58;;;;;;;;;;;;;;;34.36;41.71;96537.13;5047154;28;19958;-72
2023/08/19 12:30:24;;;;;;;;;;;;;;;34.27;42.22;96537.41;5048276;28;19966;-72
2023/08/19 12:32:50;;;;;;;;;;;;;;;34.25;39.47;96536.19;5047804;28;19950;-72
2023/08/19 12:35:15;;;;;;;;;;;;;;;34.29;43.03;96542.47;5048069;28;19957;-72
2023/08/19 12:37:41;;;;;;;;;;;;;;;34.37;44.32;96547.63;5047269;28;19960;-72
2023/08/19 12:40:09;;;;;;;;;;;;;;;34.37;43.51;96547.63;5047591;28;19962;-71